Terminal Aerodrome Forecast
Issued by NWS Wilmington, OH

Current Version | Previous Version | Text Only | Print | Product List | Glossary Off
Versions: 1 2 3 4 5 6 7 8 9 10 11 12 13 14 15 16 17 18 19 20 21

000
FTUS41 KILN 190500
TAFILN
TAF
KILN 190540Z 1906/2006 32008KT P6SM SCT015 OVC035
      TEMPO 1906/1909 OVC030
     FM191030 30004KT P6SM SCT030
     FM191500 24006KT P6SM SCT200
     FM200400 19004KT P6SM BKN200=

USA.gov is the U.S. government's official web portal to all federal, state and local government web resources and services.